createdAt,value
2023-04-09T00:01:04.535Z,19.67
2023-04-09T00:02:11.177Z,18.83
2023-04-09T00:03:14.416Z,18.30
2023-04-09T00:04:16.917Z,17.73
2023-04-09T00:05:19.233Z,18.47
2023-04-09T00:06:21.494Z,19.13
2023-04-09T00:07:23.766Z,18.80
2023-04-09T00:08:28.912Z,17.43
2023-04-09T00:09:32.626Z,18.37
2023-04-09T00:10:35.484Z,18.17
2023-04-09T00:11:37.840Z,18.10
2023-04-09T00:12:40.202Z,18.53
2023-04-09T00:13:42.852Z,18.87
2023-04-09T00:14:46.751Z,18.33
2023-04-09T00:15:48.980Z,18.57
2023-04-09T00:16:51.265Z,18.60
2023-04-09T00:17:53.613Z,18.37
2023-04-09T00:18:56.653Z,18.23
2023-04-09T00:19:58.946Z,18.07
2023-04-09T00:21:01.331Z,18.30
2023-04-09T00:22:03.592Z,18.17
2023-04-09T00:23:06.289Z,18.53
2023-04-09T00:24:09.148Z,18.37
2023-04-09T00:25:11.516Z,18.70
2023-04-09T00:26:13.941Z,18.67
2023-04-09T00:27:16.943Z,18.63
2023-04-09T00:28:19.188Z,18.73
2023-04-09T00:29:21.489Z,18.17
2023-04-09T00:30:23.824Z,19.53
2023-04-09T00:31:26.504Z,18.00
2023-04-09T00:32:28.865Z,18.87
2023-04-09T00:33:31.634Z,19.00
2023-04-09T00:34:34.382Z,19.00
2023-04-09T00:35:37.184Z,19.30
2023-04-09T00:36:39.480Z,18.73
2023-04-09T00:37:41.945Z,18.60
2023-04-09T00:38:44.208Z,19.83
2023-04-09T00:39:47.779Z,19.00
2023-04-09T00:40:51.004Z,18.23
2023-04-09T00:41:58.352Z,18.83
2023-04-09T00:43:01.666Z,18.70
2023-04-09T00:44:04.029Z,18.37
2023-04-09T00:45:06.986Z,18.33
2023-04-09T00:46:09.417Z,18.30
2023-04-09T00:47:11.727Z,17.63
2023-04-09T00:48:15.871Z,17.67
2023-04-09T00:49:18.290Z,18.13
2023-04-09T00:50:21.719Z,17.30
2023-04-09T00:51:24.411Z,17.60
2023-04-09T00:52:27.317Z,17.30
2023-04-09T00:53:29.660Z,18.17
2023-04-09T00:54:32.726Z,17.73
2023-04-09T00:55:36.229Z,17.50
2023-04-09T00:56:41.497Z,16.80
2023-04-09T00:57:44.252Z,17.47
2023-04-09T00:58:47.155Z,16.97
2023-04-09T00:59:50.871Z,17.23
2023-04-09T01:00:53.206Z,16.87
2023-04-09T01:01:56.136Z,17.30
2023-04-09T01:02:59.727Z,16.57
2023-04-09T01:04:02.850Z,17.10
2023-04-09T01:05:05.668Z,17.57
2023-04-09T01:06:19.488Z,18.17
2023-04-09T01:07:37.399Z,17.20
2023-04-09T01:08:58.605Z,17.17
2023-04-09T01:10:22.043Z,16.83
2023-04-09T01:11:49.130Z,16.70
2023-04-09T01:13:28.684Z,17.10
2023-04-09T01:14:43.448Z,17.17
2023-04-09T01:15:56.247Z,17.43
2023-04-09T01:17:06.920Z,17.10
2023-04-09T01:18:23.166Z,16.53
2023-04-09T01:19:45.743Z,16.97
2023-04-09T01:21:17.381Z,16.87
2023-04-09T01:22:39.971Z,17.30
2023-04-09T01:23:53.041Z,16.73
2023-04-09T01:25:43.980Z,16.77
2023-04-09T01:27:08.853Z,17.70
2023-04-09T01:28:28.125Z,16.90
2023-04-09T01:29:48.426Z,17.10
2023-04-09T01:30:54.133Z,16.53
2023-04-09T01:31:56.578Z,16.23
2023-04-09T01:33:00.560Z,17.03
2023-04-09T01:34:05.253Z,17.33
2023-04-09T01:35:09.651Z,17.63
2023-04-09T01:36:13.791Z,16.83
2023-04-09T01:37:17.449Z,17.97
2023-04-09T01:38:21.987Z,16.47
2023-04-09T01:39:24.447Z,16.80
2023-04-09T01:40:26.771Z,17.20
2023-04-09T01:41:32.680Z,17.50
2023-04-09T01:42:36.644Z,17.33
2023-04-09T01:43:39.645Z,16.77
2023-04-09T01:44:44.361Z,16.87
2023-04-09T01:45:48.902Z,16.73
2023-04-09T01:46:52.307Z,17.20
2023-04-09T01:47:56.370Z,16.70
2023-04-09T01:48:59.551Z,17.23
2023-04-09T01:50:03.526Z,17.87
2023-04-09T01:51:06.146Z,16.90
2023-04-09T01:52:09.949Z,17.60
2023-04-09T01:53:13.275Z,18.53
2023-04-09T01:54:19.075Z,17.47
2023-04-09T01:55:21.543Z,18.03
2023-04-09T01:56:23.862Z,17.50
2023-04-09T01:57:26.229Z,18.13
2023-04-09T01:58:29.024Z,16.80
2023-04-09T01:59:31.466Z,16.90
2023-04-09T02:00:40.013Z,16.83
2023-04-09T02:01:54.858Z,17.47
2023-04-09T02:03:06.368Z,16.43
2023-04-09T02:04:20.259Z,17.33
2023-04-09T02:05:28.460Z,17.10
2023-04-09T02:06:53.841Z,17.60
2023-04-09T02:07:59.606Z,17.10
2023-04-09T02:09:06.033Z,16.57
2023-04-09T02:10:11.214Z,17.00
2023-04-09T02:11:15.445Z,17.43
2023-04-09T02:12:20.169Z,17.37
2023-04-09T02:13:24.162Z,17.37
2023-04-09T02:14:28.568Z,17.23
2023-04-09T02:15:32.552Z,16.93
2023-04-09T02:16:36.457Z,16.70
2023-04-09T02:17:38.836Z,16.90
2023-04-09T02:18:41.472Z,16.57
2023-04-09T02:19:46.226Z,17.60
2023-04-09T02:20:49.184Z,18.23
2023-04-09T02:21:51.544Z,17.20
2023-04-09T02:22:53.806Z,17.23
2023-04-09T02:23:57.438Z,17.47
2023-04-09T02:25:00.051Z,16.70
2023-04-09T02:26:02.921Z,17.67
2023-04-09T02:27:06.344Z,17.40
2023-04-09T02:28:08.575Z,18.37
2023-04-09T02:29:10.826Z,17.30
2023-04-09T02:30:13.230Z,17.23
2023-04-09T02:31:16.148Z,17.03
2023-04-09T02:32:20.472Z,17.40
2023-04-09T02:33:24.428Z,18.27
2023-04-09T02:34:26.705Z,17.83
2023-04-09T02:35:29.191Z,17.60
2023-04-09T02:36:31.486Z,17.23
2023-04-09T02:37:34.840Z,18.00
2023-04-09T02:38:37.213Z,17.53
2023-04-09T02:39:39.530Z,17.07
2023-04-09T02:40:42.009Z,16.90
2023-04-09T02:41:44.705Z,17.30
2023-04-09T02:42:47.086Z,16.60
2023-04-09T02:43:49.414Z,16.83
2023-04-09T02:44:51.677Z,16.87
2023-04-09T02:45:54.040Z,16.67
2023-04-09T02:46:57.023Z,17.60
2023-04-09T02:47:59.476Z,16.77
2023-04-09T02:49:01.822Z,17.03
2023-04-09T02:50:05.082Z,16.13
2023-04-09T02:51:08.906Z,16.40
2023-04-09T02:52:11.595Z,17.30
2023-04-09T02:53:13.912Z,16.87
2023-04-09T02:54:16.393Z,17.80
2023-04-09T02:55:19.615Z,16.80
2023-04-09T02:56:21.864Z,16.77
2023-04-09T02:57:24.235Z,17.13
2023-04-09T02:58:26.581Z,17.90
2023-04-09T02:59:28.838Z,17.77
2023-04-09T03:00:31.197Z,17.17
2023-04-09T03:01:33.545Z,18.73
2023-04-09T03:02:37.209Z,18.40
2023-04-09T03:03:42.621Z,18.87
2023-04-09T03:04:45.068Z,18.20
2023-04-09T03:05:47.373Z,18.43
2023-04-09T03:06:51.813Z,18.27
2023-04-09T03:07:55.207Z,17.83
2023-04-09T03:08:57.476Z,18.30
2023-04-09T03:09:59.762Z,18.03
2023-04-09T03:11:02.032Z,18.30
2023-04-09T03:12:04.549Z,17.67
2023-04-09T03:13:06.840Z,18.37
2023-04-09T03:14:09.556Z,17.23
2023-04-09T03:15:11.966Z,18.57
2023-04-09T03:16:14.227Z,16.73
2023-04-09T03:17:16.616Z,17.83
2023-04-09T03:18:19.367Z,17.37
2023-04-09T03:19:22.816Z,17.13
2023-04-09T03:20:25.214Z,17.70
2023-04-09T03:21:27.707Z,17.83
2023-04-09T03:22:29.969Z,17.37
2023-04-09T03:23:35.232Z,17.43
2023-04-09T03:24:39.156Z,17.63
2023-04-09T03:25:42.093Z,17.20
2023-04-09T03:26:49.948Z,17.40
2023-04-09T03:27:52.524Z,17.60
2023-04-09T03:29:06.025Z,17.60
2023-04-09T03:30:10.311Z,16.53
2023-04-09T03:31:18.613Z,17.00
2023-04-09T03:32:23.338Z,17.47
2023-04-09T03:33:26.236Z,16.97
2023-04-09T03:34:31.129Z,17.13
2023-04-09T03:35:35.179Z,16.83
2023-04-09T03:36:39.027Z,17.07
2023-04-09T03:37:54.017Z,17.03
2023-04-09T03:38:56.959Z,16.50
2023-04-09T03:40:09.145Z,17.63
2023-04-09T03:41:12.671Z,17.37
2023-04-09T03:42:14.952Z,17.40
2023-04-09T03:43:22.250Z,16.93
2023-04-09T03:44:27.582Z,18.20
2023-04-09T03:45:34.552Z,17.57
2023-04-09T03:46:49.549Z,16.70
2023-04-09T03:47:55.160Z,17.77
2023-04-09T03:49:01.293Z,16.50
2023-04-09T03:50:23.420Z,17.10
2023-04-09T03:51:29.602Z,17.07
2023-04-09T03:52:35.467Z,16.63
2023-04-09T03:53:47.081Z,17.53
2023-04-09T03:54:54.232Z,16.97
2023-04-09T03:55:59.975Z,16.63
2023-04-09T03:57:03.974Z,16.33
2023-04-09T03:58:06.505Z,16.10
2023-04-09T03:59:11.138Z,17.00
2023-04-09T04:00:16.424Z,16.37
2023-04-09T04:01:46.701Z,16.70
2023-04-09T04:02:49.785Z,17.43
2023-04-09T04:03:54.875Z,17.43
2023-04-09T04:05:01.611Z,17.37
2023-04-09T04:06:09.735Z,16.73
2023-04-09T04:07:37.278Z,16.90
2023-04-09T04:08:48.825Z,16.77
2023-04-09T04:09:52.029Z,17.03
2023-04-09T04:10:55.532Z,18.33
2023-04-09T04:11:59.055Z,17.23
2023-04-09T04:13:15.967Z,16.83
2023-04-09T04:14:24.653Z,17.53
2023-04-09T04:15:34.428Z,16.77
2023-04-09T04:16:43.035Z,18.17
2023-04-09T04:17:46.852Z,16.60
2023-04-09T04:18:59.078Z,17.60
2023-04-09T04:20:03.332Z,18.07
2023-04-09T04:21:14.845Z,17.33
2023-04-09T04:22:20.593Z,16.53
2023-04-09T04:23:26.676Z,17.47
2023-04-09T04:24:36.167Z,18.10
2023-04-09T04:25:42.184Z,17.27
2023-04-09T04:26:47.690Z,16.87
2023-04-09T04:27:53.097Z,16.83
2023-04-09T04:28:58.599Z,17.13
2023-04-09T04:30:18.964Z,15.33
2023-04-09T04:31:36.370Z,16.23
2023-04-09T04:32:38.801Z,16.23
2023-04-09T04:33:44.768Z,17.30
2023-04-09T04:34:50.789Z,16.60
2023-04-09T04:36:07.392Z,16.70
2023-04-09T04:37:17.012Z,16.87
2023-04-09T04:38:19.519Z,18.20
2023-04-09T04:39:22.994Z,18.17
2023-04-09T04:40:37.290Z,17.50
2023-04-09T04:41:39.547Z,18.03
2023-04-09T04:42:47.164Z,17.50
2023-04-09T04:43:51.473Z,17.17
2023-04-09T04:44:57.534Z,17.33
2023-04-09T04:46:13.949Z,17.50
2023-04-09T04:47:16.501Z,17.03
2023-04-09T04:48:20.600Z,17.10
2023-04-09T04:49:22.881Z,17.70
2023-04-09T04:50:26.378Z,17.70
2023-04-09T04:51:36.177Z,16.60
2023-04-09T04:52:45.111Z,18.10
2023-04-09T04:53:47.754Z,17.47
2023-04-09T04:54:51.713Z,17.80
2023-04-09T04:55:57.829Z,18.13
2023-04-09T04:57:02.805Z,18.17
2023-04-09T04:58:11.992Z,17.03
2023-04-09T04:59:21.493Z,17.00
2023-04-09T05:00:35.851Z,17.43
2023-04-09T05:01:40.215Z,17.20
2023-04-09T05:02:46.901Z,17.47
2023-04-09T05:04:14.515Z,18.37
2023-04-09T05:05:16.865Z,18.00
2023-04-09T05:06:25.084Z,17.87
2023-04-09T05:07:28.642Z,18.13
2023-04-09T05:08:32.372Z,17.93
2023-04-09T05:09:34.701Z,18.30
2023-04-09T05:10:43.483Z,18.07
2023-04-09T05:11:47.129Z,18.37
2023-04-09T05:12:54.323Z,16.90
2023-04-09T05:14:06.552Z,17.30
2023-04-09T05:15:09.109Z,16.63
2023-04-09T05:16:22.416Z,17.87
2023-04-09T05:17:31.479Z,16.93
2023-04-09T05:18:33.776Z,17.43
2023-04-09T05:19:36.176Z,18.27
2023-04-09T05:20:38.800Z,17.07
2023-04-09T05:21:46.803Z,17.23
2023-04-09T05:22:52.448Z,17.23
2023-04-09T05:24:01.281Z,18.03
2023-04-09T05:25:08.446Z,18.17
2023-04-09T05:26:15.814Z,16.73
2023-04-09T05:27:26.259Z,17.53
2023-04-09T05:28:33.222Z,17.57
2023-04-09T05:29:48.989Z,17.00
2023-04-09T05:30:51.696Z,18.17
2023-04-09T05:31:54.534Z,17.10
2023-04-09T05:33:05.265Z,18.77
2023-04-09T05:34:08.382Z,17.87
2023-04-09T05:35:19.163Z,18.13
2023-04-09T05:36:21.540Z,18.13
2023-04-09T05:37:23.837Z,18.10
2023-04-09T05:38:29.335Z,18.07
2023-04-09T05:39:34.157Z,17.80
2023-04-09T05:40:37.026Z,17.77
2023-04-09T05:41:47.021Z,17.47
2023-04-09T05:43:03.214Z,17.53
2023-04-09T05:44:14.148Z,17.50
2023-04-09T05:45:16.659Z,17.80
2023-04-09T05:46:24.521Z,17.83
2023-04-09T05:47:29.543Z,18.10
2023-04-09T05:48:39.522Z,17.73
2023-04-09T05:49:42.256Z,18.00
2023-04-09T05:50:55.979Z,17.50
2023-04-09T05:52:01.902Z,17.77
2023-04-09T05:53:07.399Z,17.83
2023-04-09T05:54:14.546Z,18.40
2023-04-09T05:55:16.944Z,18.40
2023-04-09T05:56:23.685Z,19.07
2023-04-09T05:57:32.001Z,18.67
2023-04-09T05:58:37.557Z,17.40
2023-04-09T05:59:41.142Z,17.70
2023-04-09T06:00:43.866Z,18.00
2023-04-09T06:01:46.238Z,17.63
2023-04-09T06:02:51.197Z,18.60
2023-04-09T06:03:55.502Z,17.73
2023-04-09T06:05:00.399Z,19.03
2023-04-09T06:06:02.802Z,19.97
2023-04-09T06:07:05.959Z,18.90
2023-04-09T06:08:08.749Z,20.57
2023-04-09T06:09:10.979Z,20.00
2023-04-09T06:10:13.378Z,20.80
2023-04-09T06:11:15.974Z,20.83
2023-04-09T06:12:19.697Z,21.10
2023-04-09T06:13:22.423Z,21.77
2023-04-09T06:14:24.710Z,21.90
2023-04-09T06:15:27.674Z,21.30
2023-04-09T06:16:30.166Z,21.97
2023-04-09T06:17:32.508Z,21.63
2023-04-09T06:18:36.469Z,21.00
2023-04-09T06:19:38.768Z,21.53
2023-04-09T06:20:42.361Z,21.57
2023-04-09T06:21:47.709Z,21.83
2023-04-09T06:22:50.135Z,21.63
2023-04-09T06:23:53.926Z,20.63
2023-04-09T06:24:56.822Z,20.23
2023-04-09T06:25:59.583Z,20.83
2023-04-09T06:27:04.287Z,20.70
2023-04-09T06:28:06.900Z,19.57
2023-04-09T06:29:09.252Z,19.23
2023-04-09T06:30:11.934Z,19.33
2023-04-09T06:31:14.358Z,19.97
2023-04-09T06:32:17.274Z,20.23
2023-04-09T06:33:22.587Z,19.97
2023-04-09T06:34:24.941Z,19.97
2023-04-09T06:35:28.978Z,20.43
2023-04-09T06:36:33.017Z,19.60
2023-04-09T06:37:35.300Z,20.30
2023-04-09T06:38:37.608Z,20.53
2023-04-09T06:39:47.710Z,20.70
2023-04-09T06:41:02.625Z,19.60
2023-04-09T06:42:04.999Z,20.23
2023-04-09T06:43:14.254Z,20.23
2023-04-09T06:44:24.935Z,19.77
2023-04-09T06:45:27.752Z,21.37
2023-04-09T06:46:30.321Z,20.70
2023-04-09T06:47:32.731Z,20.40
2023-04-09T06:48:35.268Z,20.83
2023-04-09T06:49:38.064Z,20.53
2023-04-09T06:50:40.532Z,21.33
2023-04-09T06:51:42.869Z,21.80
2023-04-09T06:52:45.214Z,20.87
2023-04-09T06:53:48.531Z,21.77
2023-04-09T06:54:52.218Z,21.80
2023-04-09T06:55:56.707Z,23.00
2023-04-09T06:56:59.508Z,21.90
2023-04-09T06:58:02.993Z,21.17
2023-04-09T06:59:07.932Z,21.40
2023-04-09T07:00:11.048Z,20.93
2023-04-09T07:01:13.352Z,20.53
2023-04-09T07:02:15.978Z,20.50
2023-04-09T07:03:18.488Z,21.00
2023-04-09T07:04:21.447Z,21.40
2023-04-09T07:05:24.342Z,21.10
2023-04-09T07:06:26.689Z,21.17
2023-04-09T07:07:29.060Z,21.40
2023-04-09T07:08:31.417Z,20.90
2023-04-09T07:09:34.172Z,20.43
2023-04-09T07:10:36.819Z,20.70
2023-04-09T07:11:39.212Z,20.30
2023-04-09T07:12:41.617Z,20.95
2023-04-09T07:13:44.063Z,19.55
2023-04-09T07:14:46.398Z,21.70
2023-04-09T07:15:48.757Z,20.48
2023-04-09T07:16:51.103Z,20.00
2023-04-09T07:17:53.599Z,21.35
2023-04-09T07:18:56.054Z,21.65
2023-04-09T07:19:58.550Z,21.13
2023-04-09T07:21:01.043Z,21.35
2023-04-09T07:22:03.382Z,21.30
2023-04-09T07:23:06.018Z,21.20
2023-04-09T07:24:10.762Z,20.63
2023-04-09T07:25:13.122Z,20.85
2023-04-09T07:26:15.529Z,20.98
2023-04-09T07:27:18.021Z,20.17
2023-04-09T07:28:20.451Z,20.92
2023-04-09T07:29:22.858Z,21.13
2023-04-09T07:30:25.249Z,20.60
2023-04-09T07:31:27.673Z,21.17
2023-04-09T07:32:30.374Z,19.55
2023-04-09T07:33:32.896Z,21.33
2023-04-09T07:34:38.046Z,20.80
2023-04-09T07:35:40.583Z,20.52
2023-04-09T07:36:43.243Z,20.60
2023-04-09T07:37:45.795Z,21.00
2023-04-09T07:38:50.371Z,20.30
2023-04-09T07:39:53.688Z,21.02
2023-04-09T07:40:56.238Z,21.10
2023-04-09T07:41:58.580Z,21.65
2023-04-09T07:43:01.245Z,21.55
2023-04-09T07:44:04.160Z,21.48
2023-04-09T07:45:07.510Z,21.65
2023-04-09T07:46:09.869Z,21.25
2023-04-09T07:47:13.155Z,21.27
2023-04-09T07:48:15.656Z,21.83
2023-04-09T07:49:18.059Z,21.15
2023-04-09T07:50:20.575Z,20.80
2023-04-09T07:51:22.964Z,21.65
2023-04-09T07:52:25.307Z,21.80
2023-04-09T07:53:27.839Z,22.23
2023-04-09T07:54:31.697Z,22.05
2023-04-09T07:55:34.006Z,21.30
2023-04-09T07:56:36.541Z,20.90
2023-04-09T07:57:38.964Z,19.88
2023-04-09T07:58:41.273Z,21.17
2023-04-09T07:59:43.566Z,19.95
2023-04-09T08:00:45.893Z,19.88
2023-04-09T08:01:48.356Z,20.50
2023-04-09T08:02:51.141Z,20.48
2023-04-09T08:03:53.761Z,20.27
2023-04-09T08:04:56.188Z,20.00
2023-04-09T08:05:58.568Z,19.73
2023-04-09T08:07:00.921Z,19.52
2023-04-09T08:08:03.606Z,19.48
2023-04-09T08:09:08.568Z,18.48
2023-04-09T08:10:15.298Z,19.08
2023-04-09T08:11:22.347Z,19.58
2023-04-09T08:12:24.649Z,19.75
2023-04-09T08:13:26.971Z,20.42
2023-04-09T08:14:29.321Z,19.60
2023-04-09T08:15:31.666Z,19.67
2023-04-09T08:16:34.002Z,20.48
2023-04-09T08:17:37.488Z,20.60
2023-04-09T08:18:40.000Z,19.50
2023-04-09T08:19:42.329Z,20.02
2023-04-09T08:20:45.511Z,19.98
2023-04-09T08:21:50.655Z,20.58
2023-04-09T08:22:53.342Z,20.40
2023-04-09T08:23:59.753Z,19.42
2023-04-09T08:25:02.919Z,20.52
2023-04-09T08:26:05.400Z,19.75
2023-04-09T08:27:07.897Z,19.80
2023-04-09T08:28:10.155Z,19.00
2023-04-09T08:29:13.865Z,19.48
2023-04-09T08:30:18.274Z,19.02
2023-04-09T08:31:21.232Z,19.52
2023-04-09T08:32:23.616Z,20.08
2023-04-09T08:33:26.723Z,20.13
2023-04-09T08:34:29.003Z,20.23
2023-04-09T08:35:31.585Z,19.23
2023-04-09T08:36:35.672Z,20.33
2023-04-09T08:37:38.553Z,20.10
2023-04-09T08:38:42.213Z,19.83
2023-04-09T08:39:44.530Z,20.08
2023-04-09T08:40:46.936Z,19.70
2023-04-09T08:41:52.150Z,18.98
2023-04-09T08:42:58.811Z,18.77
2023-04-09T08:44:01.129Z,19.63
2023-04-09T08:45:06.371Z,19.85
2023-04-09T08:46:10.764Z,20.35
2023-04-09T08:47:13.686Z,19.98
2023-04-09T08:48:17.215Z,19.92
2023-04-09T08:49:19.753Z,19.83
2023-04-09T08:50:22.600Z,20.10
2023-04-09T08:51:25.236Z,20.23
2023-04-09T08:52:32.981Z,20.75
2023-04-09T08:53:36.375Z,19.60
2023-04-09T08:54:38.789Z,20.63
2023-04-09T08:55:45.086Z,20.23
2023-04-09T08:56:47.932Z,19.73
2023-04-09T08:57:50.474Z,19.70
2023-04-09T08:58:53.991Z,20.35
2023-04-09T08:59:56.621Z,20.00
2023-04-09T09:00:58.943Z,19.88
2023-04-09T09:02:12.074Z,19.42
2023-04-09T09:03:14.902Z,19.52
2023-04-09T09:04:17.454Z,19.88
2023-04-09T09:05:36.041Z,20.58
2023-04-09T09:06:41.269Z,19.73
2023-04-09T09:07:54.725Z,19.77
2023-04-09T09:09:13.959Z,19.52
2023-04-09T09:10:16.400Z,19.75
2023-04-09T09:11:28.076Z,19.45
2023-04-09T09:12:41.343Z,19.98
2023-04-09T09:13:43.648Z,19.05
2023-04-09T09:14:46.669Z,20.63
2023-04-09T09:15:52.975Z,20.13
2023-04-09T09:16:58.245Z,19.80
2023-04-09T09:18:01.020Z,20.38
2023-04-09T09:19:03.532Z,19.52
2023-04-09T09:20:27.282Z,20.10
2023-04-09T09:21:30.379Z,19.73
2023-04-09T09:22:49.572Z,20.05
2023-04-09T09:23:58.287Z,19.70
2023-04-09T09:25:00.643Z,19.63
2023-04-09T09:26:12.691Z,20.20
2023-04-09T09:27:37.048Z,20.45
2023-04-09T09:28:39.582Z,19.77
2023-04-09T09:29:42.918Z,20.25
2023-04-09T09:30:48.628Z,20.58
2023-04-09T09:31:53.979Z,19.60
2023-04-09T09:33:12.673Z,20.75
2023-04-09T09:34:17.157Z,20.33
2023-04-09T09:35:19.671Z,20.67
2023-04-09T09:36:35.254Z,20.77
2023-04-09T09:37:37.515Z,20.33
2023-04-09T09:38:57.514Z,21.02
2023-04-09T09:40:01.218Z,20.15
2023-04-09T09:41:18.091Z,21.10
2023-04-09T09:42:20.440Z,20.33
2023-04-09T09:43:22.915Z,20.73
2023-04-09T09:44:33.125Z,20.92
2023-04-09T09:45:37.478Z,20.73
2023-04-09T09:46:42.640Z,22.70
2023-04-09T09:47:45.925Z,23.42
2023-04-09T09:48:50.196Z,22.35
2023-04-09T09:49:52.797Z,21.95
2023-04-09T09:50:55.290Z,21.75
2023-04-09T09:52:00.152Z,21.70
2023-04-09T09:53:06.243Z,21.27
2023-04-09T09:54:13.106Z,21.73
2023-04-09T09:55:18.035Z,21.70
2023-04-09T09:56:24.989Z,22.15
2023-04-09T09:57:30.198Z,20.60
2023-04-09T09:58:44.225Z,26.42
2023-04-09T10:00:05.853Z,153.40
2023-04-09T10:01:18.469Z,111.65
2023-04-09T10:02:23.628Z,121.55
2023-04-09T10:03:29.437Z,84.07
2023-04-09T10:04:36.113Z,62.25
2023-04-09T10:05:40.782Z,39.92
2023-04-09T10:06:48.347Z,37.85
2023-04-09T10:07:51.987Z,49.33
2023-04-09T10:09:01.034Z,57.45
2023-04-09T10:10:05.384Z,58.08
2023-04-09T10:11:08.050Z,54.47
2023-04-09T10:12:12.210Z,38.47
2023-04-09T10:13:21.481Z,47.10
2023-04-09T10:14:24.663Z,31.02
2023-04-09T10:15:30.132Z,42.78
2023-04-09T10:16:33.192Z,41.90
2023-04-09T10:17:35.727Z,37.53
2023-04-09T10:18:38.167Z,29.60
2023-04-09T10:19:49.738Z,31.90
2023-04-09T10:20:59.816Z,28.75
2023-04-09T10:22:11.869Z,28.35
2023-04-09T10:23:24.466Z,26.48
2023-04-09T10:24:26.788Z,23.05
2023-04-09T10:25:29.171Z,27.73
2023-04-09T10:26:40.391Z,26.85
2023-04-09T10:27:46.283Z,24.80
2023-04-09T10:29:09.652Z,24.48
2023-04-09T10:30:32.584Z,28.52
2023-04-09T10:31:54.287Z,25.50
2023-04-09T10:32:56.720Z,23.40
2023-04-09T10:34:04.297Z,22.75
2023-04-09T10:35:09.510Z,23.15
2023-04-09T10:36:13.346Z,23.10
2023-04-09T10:37:20.781Z,21.85
2023-04-09T10:38:45.361Z,20.98
2023-04-09T10:39:49.029Z,21.63
2023-04-09T10:40:51.588Z,20.65
2023-04-09T10:41:55.150Z,21.63
2023-04-09T10:42:58.333Z,20.48
2023-04-09T10:44:00.755Z,21.55
2023-04-09T10:45:07.849Z,20.88
2023-04-09T10:46:30.220Z,21.45
2023-04-09T10:47:36.788Z,21.80
2023-04-09T10:48:39.058Z,21.30
2023-04-09T10:49:42.256Z,21.65
2023-04-09T10:50:44.869Z,20.75
2023-04-09T10:52:03.556Z,21.80
2023-04-09T10:53:06.495Z,22.15
2023-04-09T10:54:37.836Z,21.92
2023-04-09T10:55:41.814Z,20.58
2023-04-09T10:57:16.867Z,22.23
2023-04-09T10:58:19.748Z,22.13
2023-04-09T10:59:22.059Z,21.40
2023-04-09T11:00:24.340Z,21.85
2023-04-09T11:01:27.505Z,21.23
2023-04-09T11:02:39.046Z,21.27
2023-04-09T11:03:45.213Z,20.77
2023-04-09T11:05:00.473Z,20.80
2023-04-09T11:06:09.505Z,21.02
2023-04-09T11:07:12.788Z,21.63
2023-04-09T11:08:17.324Z,21.40
2023-04-09T11:09:19.620Z,20.92
2023-04-09T11:10:22.186Z,21.73
2023-04-09T11:11:28.467Z,20.98
2023-04-09T11:12:30.801Z,21.02
2023-04-09T11:13:33.253Z,22.00
2023-04-09T11:14:35.557Z,21.83
2023-04-09T11:15:37.904Z,21.42
2023-04-09T11:18:09.014Z,22.88
2023-04-09T11:19:11.508Z,23.45
2023-04-09T11:20:16.760Z,21.70
2023-04-09T11:21:19.087Z,21.90
2023-04-09T11:22:21.546Z,21.90
2023-04-09T11:23:24.951Z,22.42
2023-04-09T11:24:27.290Z,22.10
2023-04-09T11:25:31.837Z,21.58
2023-04-09T11:26:38.380Z,22.25
2023-04-09T11:27:46.817Z,21.60
2023-04-09T11:28:49.410Z,21.58
2023-04-09T11:29:56.461Z,20.52
2023-04-09T11:31:00.183Z,21.67
2023-04-09T11:32:02.902Z,21.05
2023-04-09T11:33:05.272Z,21.70
2023-04-09T11:34:11.541Z,20.23
2023-04-09T11:35:21.165Z,20.02
2023-04-09T11:36:23.924Z,20.27
2023-04-09T11:37:26.417Z,20.05
2023-04-09T11:38:31.857Z,20.38
2023-04-09T11:39:38.405Z,21.38
2023-04-09T11:40:48.507Z,22.10
2023-04-09T11:41:51.298Z,20.95
2023-04-09T11:42:55.484Z,21.30
2023-04-09T11:43:57.850Z,20.80
2023-04-09T11:45:02.664Z,21.40
2023-04-09T11:46:08.309Z,20.10
2023-04-09T11:47:11.582Z,19.83
2023-04-09T11:48:15.233Z,19.80
2023-04-09T11:49:17.865Z,20.70
2023-04-09T11:50:21.352Z,20.85
2023-04-09T11:51:24.462Z,21.05
2023-04-09T11:52:28.199Z,20.30
2023-04-09T11:53:31.432Z,19.65
2023-04-09T11:54:34.747Z,18.70
2023-04-09T11:55:38.472Z,19.20
2023-04-09T11:56:40.807Z,18.95
2023-04-09T11:57:46.846Z,19.67
2023-04-09T11:58:49.722Z,19.10
2023-04-09T11:59:53.506Z,18.83
2023-04-09T12:01:00.813Z,18.50
2023-04-09T12:02:08.563Z,17.85
2023-04-09T12:03:12.510Z,19.42
2023-04-09T12:04:24.258Z,18.55
2023-04-09T12:05:29.894Z,18.85
2023-04-09T12:06:33.393Z,18.63
2023-04-09T12:07:39.578Z,19.17
2023-04-09T12:08:45.336Z,19.23
2023-04-09T12:09:51.962Z,19.20
2023-04-09T12:10:54.848Z,19.75
2023-04-09T12:12:00.130Z,19.23
2023-04-09T12:13:14.136Z,19.40
2023-04-09T12:14:17.910Z,19.38
2023-04-09T12:15:27.461Z,19.20
2023-04-09T12:16:36.943Z,19.33
2023-04-09T12:17:39.766Z,19.13
2023-04-09T12:18:42.158Z,19.98
2023-04-09T12:19:52.146Z,19.17
2023-04-09T12:20:54.388Z,19.15
2023-04-09T12:21:58.975Z,19.48
2023-04-09T12:23:03.770Z,18.77
2023-04-09T12:24:09.158Z,18.10
2023-04-09T12:25:11.602Z,18.73
2023-04-09T12:26:16.681Z,19.42
2023-04-09T12:27:19.086Z,19.20
2023-04-09T12:28:22.004Z,19.38
2023-04-09T12:29:26.126Z,19.00
2023-04-09T12:30:28.465Z,19.27
2023-04-09T12:31:30.993Z,18.63
2023-04-09T12:32:36.350Z,18.35
2023-04-09T12:33:40.627Z,18.83
2023-04-09T12:34:44.389Z,19.77
2023-04-09T12:35:47.351Z,19.17
2023-04-09T12:36:50.892Z,18.17
2023-04-09T12:37:55.177Z,18.23
2023-04-09T12:38:59.090Z,17.23
2023-04-09T12:40:01.524Z,16.75
2023-04-09T12:41:04.651Z,16.52
2023-04-09T12:42:07.156Z,16.58
2023-04-09T12:43:09.472Z,16.50
2023-04-09T12:44:11.834Z,16.98
2023-04-09T12:45:17.177Z,17.35
2023-04-09T12:46:21.866Z,16.85
2023-04-09T12:47:24.283Z,16.75
2023-04-09T12:48:35.413Z,16.58
2023-04-09T12:49:42.137Z,17.45
2023-04-09T12:50:45.662Z,16.80
2023-04-09T12:51:49.114Z,16.00
2023-04-09T12:52:51.857Z,17.58
2023-04-09T12:53:55.344Z,18.00
2023-04-09T12:54:58.337Z,18.13
2023-04-09T12:56:02.008Z,18.20
2023-04-09T12:57:05.564Z,18.25
2023-04-09T12:58:08.960Z,17.67
2023-04-09T12:59:11.494Z,18.17
2023-04-09T13:00:20.836Z,17.45
2023-04-09T13:01:23.281Z,18.15
2023-04-09T13:02:25.988Z,16.90
2023-04-09T13:03:29.907Z,17.27
2023-04-09T13:04:32.763Z,17.45
2023-04-09T13:05:44.931Z,17.63
2023-04-09T13:06:49.075Z,17.08
2023-04-09T13:07:53.974Z,16.77
2023-04-09T13:08:56.438Z,17.33
2023-04-09T13:10:01.745Z,17.25
2023-04-09T13:11:05.465Z,16.48
2023-04-09T13:12:07.932Z,17.75
2023-04-09T13:13:14.206Z,17.77
2023-04-09T13:14:16.582Z,17.25
2023-04-09T13:15:19.997Z,17.67
2023-04-09T13:16:22.547Z,18.02
2023-04-09T13:17:28.310Z,17.70
2023-04-09T13:18:30.623Z,16.60
2023-04-09T13:19:35.099Z,18.15
2023-04-09T13:20:37.499Z,18.05
2023-04-09T13:21:41.046Z,18.50
2023-04-09T13:22:47.183Z,18.83
2023-04-09T13:23:49.492Z,18.50
2023-04-09T13:24:52.880Z,18.85
2023-04-09T13:25:56.796Z,17.65
2023-04-09T13:26:59.217Z,17.70
2023-04-09T13:28:02.413Z,16.55
2023-04-09T13:29:09.426Z,15.25
2023-04-09T13:30:14.924Z,15.90
2023-04-09T13:31:18.401Z,15.93
2023-04-09T13:32:22.411Z,15.05
2023-04-09T13:33:26.677Z,15.48
2023-04-09T13:34:29.096Z,15.57
2023-04-09T13:35:31.672Z,15.35
2023-04-09T13:36:34.687Z,15.48
2023-04-09T13:37:37.174Z,15.68
2023-04-09T13:38:39.643Z,15.02
2023-04-09T13:39:44.450Z,14.85
2023-04-09T13:40:46.793Z,14.38
2023-04-09T13:41:50.217Z,14.50
2023-04-09T13:42:56.936Z,14.27
2023-04-09T13:44:00.602Z,14.90
2023-04-09T13:45:04.303Z,14.43
2023-04-09T13:46:07.187Z,14.70
2023-04-09T13:47:11.471Z,13.88
2023-04-09T13:48:15.598Z,13.60
2023-04-09T13:49:20.617Z,14.02
2023-04-09T13:50:22.960Z,14.55
2023-04-09T13:51:30.296Z,14.25
2023-04-09T13:52:33.281Z,14.20
2023-04-09T13:53:36.713Z,13.35
2023-04-09T13:54:40.451Z,13.90
2023-04-09T13:55:44.948Z,13.52
2023-04-09T13:56:47.558Z,13.73
2023-04-09T13:57:52.074Z,12.57
2023-04-09T13:58:54.888Z,13.48
2023-04-09T13:59:57.202Z,13.55
2023-04-09T14:01:01.161Z,12.90
2023-04-09T14:02:05.193Z,11.88
2023-04-09T14:03:07.892Z,12.57
2023-04-09T14:04:12.910Z,12.98